Time;durP1;ratioP1;P1;durP2;ratioP2;P2;SDS_P1;SDS_P2;PMS_P1;PMS_P2;Temp;Humidity;BMP_temperature;BMP_pressure;BME280_temperature;BME280_humidity;BME280_pressure;Samples;Min_cycle;Max_cycle;Signal;HPM_P1;HPM_P2
2023/09/18 00:00:14;;;;;;;5.40;3.70;;;;;;;;;;4911689;29;20298;-75
2023/09/18 00:02:39;;;;;;;6.15;3.30;;;;;;;;;;4910429;29;20283;-76
2023/09/18 00:05:05;;;;;;;4.18;3.58;;;;;;;;;;4915806;29;20092;-75
2023/09/18 00:07:30;;;;;;;6.88;3.65;;;;;;;;;;4915075;29;20064;-75
2023/09/18 00:09:55;;;;;;;4.17;3.30;;;;;;;;;;4911726;29;20044;-76
2023/09/18 00:12:20;;;;;;;6.10;3.45;;;;;;;;;;4914221;29;20319;-75
2023/09/18 00:14:49;;;;;;;5.35;3.63;;;;;;;;;;4906981;29;20032;-75
2023/09/18 00:17:14;;;;;;;5.38;3.97;;;;;;;;;;4913575;29;20408;-75
2023/09/18 00:19:40;;;;;;;4.90;3.10;;;;;;;;;;4915763;29;20028;-76
2023/09/18 00:22:06;;;;;;;6.03;3.90;;;;;;;;;;4913476;29;20059;-75
2023/09/18 00:24:31;;;;;;;5.35;3.97;;;;;;;;;;4926818;29;20272;-76
2023/09/18 00:26:56;;;;;;;4.82;3.58;;;;;;;;;;4910004;29;20410;-75
2023/09/18 00:29:22;;;;;;;5.18;3.40;;;;;;;;;;4911971;29;20421;-75
2023/09/18 00:31:47;;;;;;;6.75;4.03;;;;;;;;;;4914338;29;20158;-75
2023/09/18 00:34:12;;;;;;;5.80;3.97;;;;;;;;;;4916620;29;20383;-76
2023/09/18 00:36:38;;;;;;;6.47;3.53;;;;;;;;;;4915056;29;20286;-75
2023/09/18 00:39:03;;;;;;;5.55;3.90;;;;;;;;;;4910179;29;20080;-75
2023/09/18 00:41:29;;;;;;;4.65;3.83;;;;;;;;;;4914394;29;20040;-75
2023/09/18 00:43:54;;;;;;;4.72;3.55;;;;;;;;;;4915905;29;20056;-75
2023/09/18 00:46:19;;;;;;;4.55;3.45;;;;;;;;;;4916101;29;20064;-75
2023/09/18 00:48:45;;;;;;;7.18;3.97;;;;;;;;;;4915706;29;20122;-75
2023/09/18 00:51:10;;;;;;;4.85;3.65;;;;;;;;;;4912927;29;20158;-75
2023/09/18 00:53:37;;;;;;;6.55;4.10;;;;;;;;;;4910189;29;20401;-76
2023/09/18 00:56:03;;;;;;;6.15;3.75;;;;;;;;;;4914876;29;20039;-76
2023/09/18 00:58:28;;;;;;;5.28;4.00;;;;;;;;;;4913155;29;20404;-75
2023/09/18 01:00:54;;;;;;;5.05;4.00;;;;;;;;;;4914360;29;20103;-76
2023/09/18 01:03:22;;;;;;;5.40;3.85;;;;;;;;;;4913800;29;20409;-76
2023/09/18 01:05:47;;;;;;;5.18;3.80;;;;;;;;;;4910423;29;20556;-75
2023/09/18 01:08:13;;;;;;;5.28;3.80;;;;;;;;;;4915753;29;20122;-75
2023/09/18 01:10:48;;;;;;;7.20;4.22;;;;;;;;;;4890155;29;20071;-75
2023/09/18 01:13:16;;;;;;;7.97;4.15;;;;;;;;;;4912912;29;20067;-75
2023/09/18 01:15:47;;;;;;;5.55;4.05;;;;;;;;;;4913964;29;20036;-75
2023/09/18 01:18:13;;;;;;;;;;;;;;;;;;4915757;29;20048;-75
2023/09/18 01:20:39;;;;;;;5.75;3.92;;;;;;;;;;4910043;29;19914;-75
2023/09/18 01:23:04;;;;;;;7.35;4.05;;;;;;;;;;4909433;29;20114;-75
2023/09/18 01:25:30;;;;;;;5.93;4.17;;;;;;;;;;4910305;29;20119;-75
2023/09/18 01:27:55;;;;;;;5.15;4.10;;;;;;;;;;4915425;29;20636;-75
2023/09/18 01:30:20;;;;;;;5.90;4.43;;;;;;;;;;4913969;29;20036;-75
2023/09/18 01:32:46;;;;;;;6.68;4.72;;;;;;;;;;4912120;29;20268;-76
2023/09/18 01:35:12;;;;;;;5.88;4.47;;;;;;;;;;4912535;29;20025;-75
2023/09/18 01:37:39;;;;;;;6.80;4.25;;;;;;;;;;4910414;29;20048;-76
2023/09/18 01:40:07;;;;;;;5.78;4.00;;;;;;;;;;4911575;29;20032;-76
2023/09/18 01:42:33;;;;;;;7.70;4.57;;;;;;;;;;4915015;29;20032;-75
2023/09/18 01:44:58;;;;;;;5.20;4.15;;;;;;;;;;4913576;29;20075;-75
2023/09/18 01:47:23;;;;;;;5.60;3.85;;;;;;;;;;4914026;29;20040;-76
2023/09/18 01:49:49;;;;;;;6.25;4.03;;;;;;;;;;4912335;29;20127;-76
2023/09/18 01:52:15;;;;;;;4.75;3.75;;;;;;;;;;4923066;29;20032;-75
2023/09/18 01:54:40;;;;;;;6.65;4.40;;;;;;;;;;4911927;29;20032;-76
2023/09/18 01:57:07;;;;;;;6.78;4.45;;;;;;;;;;4913556;29;20046;-75
2023/09/18 01:59:33;;;;;;;5.35;4.20;;;;;;;;;;4911379;29;20441;-76
2023/09/18 02:01:59;;;;;;;6.18;4.20;;;;;;;;;;4893114;29;20024;-76
2023/09/18 02:04:25;;;;;;;7.00;4.07;;;;;;;;;;4910161;29;20445;-75
2023/09/18 02:06:51;;;;;;;5.90;4.15;;;;;;;;;;4889534;29;20060;-75
2023/09/18 02:09:16;;;;;;;5.60;4.18;;;;;;;;;;4915077;29;20074;-76
2023/09/18 02:11:43;;;;;;;7.30;4.60;;;;;;;;;;4912841;29;20503;-76
2023/09/18 02:14:09;;;;;;;4.82;3.78;;;;;;;;;;4910596;29;20036;-75
2023/09/18 02:16:35;;;;;;;6.00;4.70;;;;;;;;;;4909651;29;20138;-76
2023/09/18 02:19:01;;;;;;;6.00;4.35;;;;;;;;;;4906726;29;20037;-76
2023/09/18 02:21:26;;;;;;;5.88;4.57;;;;;;;;;;4914613;29;20032;-76
2023/09/18 02:23:52;;;;;;;5.10;4.07;;;;;;;;;;4914521;29;20409;-76
2023/09/18 02:26:17;;;;;;;6.55;4.50;;;;;;;;;;4913271;29;20044;-76
2023/09/18 02:28:43;;;;;;;5.78;4.72;;;;;;;;;;4911024;29;20066;-75
2023/09/18 02:31:08;;;;;;;5.15;4.18;;;;;;;;;;4909824;29;20032;-76
2023/09/18 02:33:33;;;;;;;7.07;4.10;;;;;;;;;;4912802;29;20481;-76
2023/09/18 02:35:59;;;;;;;6.68;4.60;;;;;;;;;;4925520;29;20036;-75
2023/09/18 02:38:24;;;;;;;7.15;5.50;;;;;;;;;;4910343;29;20044;-75
2023/09/18 02:40:50;;;;;;;5.95;4.45;;;;;;;;;;4925787;29;20063;-75
2023/09/18 02:43:15;;;;;;;6.40;4.50;;;;;;;;;;4922759;29;20051;-75
2023/09/18 02:45:41;;;;;;;7.10;5.80;;;;;;;;;;4913995;29;20268;-75
2023/09/18 02:48:06;;;;;;;9.63;5.83;;;;;;;;;;4912156;29;20303;-74
2023/09/18 02:50:31;;;;;;;7.03;6.32;;;;;;;;;;4913207;29;20280;-75
2023/09/18 02:52:56;;;;;;;7.38;6.30;;;;;;;;;;4910804;29;20032;-74
2023/09/18 02:55:21;;;;;;;6.88;5.43;;;;;;;;;;4923942;23;20789;-79
2023/09/18 02:57:47;;;;;;;8.88;5.65;;;;;;;;;;4914458;29;20404;-79
2023/09/18 03:00:13;;;;;;;7.22;6.00;;;;;;;;;;4911928;29;20028;-79
2023/09/18 03:02:38;;;;;;;8.15;6.85;;;;;;;;;;4906731;29;20076;-79
2023/09/18 03:05:04;;;;;;;9.35;8.05;;;;;;;;;;4913346;29;20033;-79
2023/09/18 03:07:29;;;;;;;10.52;8.93;;;;;;;;;;4915743;29;20035;-79
2023/09/18 03:09:55;;;;;;;8.65;7.55;;;;;;;;;;4894364;29;20381;-79
2023/09/18 03:12:22;;;;;;;8.65;7.35;;;;;;;;;;4923083;29;20036;-79
2023/09/18 03:14:47;;;;;;;7.63;6.90;;;;;;;;;;4907983;29;20036;-79
2023/09/18 03:17:12;;;;;;;6.95;6.05;;;;;;;;;;4923508;29;20096;-80
2023/09/18 03:19:37;;;;;;;7.47;6.30;;;;;;;;;;4923791;29;20051;-79
2023/09/18 03:22:03;;;;;;;6.90;6.13;;;;;;;;;;4914195;29;20104;-79
2023/09/18 03:24:28;;;;;;;7.43;5.53;;;;;;;;;;4918254;29;20059;-79
2023/09/18 03:26:53;;;;;;;6.43;5.60;;;;;;;;;;4891604;29;20092;-79
2023/09/18 03:29:19;;;;;;;7.90;5.07;;;;;;;;;;4898238;29;20127;-79
2023/09/18 03:31:44;;;;;;;8.45;5.72;;;;;;;;;;4911254;29;20088;-79
2023/09/18 03:34:09;;;;;;;7.72;5.35;;;;;;;;;;4899468;29;20412;-79
2023/09/18 03:36:36;;;;;;;6.88;5.60;;;;;;;;;;4912129;29;20070;-79
2023/09/18 03:39:02;;;;;;;7.13;5.22;;;;;;;;;;4909446;29;20553;-79
2023/09/18 03:41:27;;;;;;;6.05;4.95;;;;;;;;;;4896184;29;20028;-78
2023/09/18 03:43:53;;;;;;;6.45;5.22;;;;;;;;;;4912622;29;20383;-79
2023/09/18 03:46:18;;;;;;;7.32;5.78;;;;;;;;;;4914895;29;20039;-79
2023/09/18 03:48:47;;;;;;;7.55;6.38;;;;;;;;;;4916828;29;20060;-80
2023/09/18 03:51:15;;;;;;;8.50;7.03;;;;;;;;;;4916160;29;20096;-79
2023/09/18 03:53:40;;;;;;;9.95;8.43;;;;;;;;;;4925286;29;20477;-79
2023/09/18 03:56:06;;;;;;;10.75;8.40;;;;;;;;;;4912113;29;20108;-79
2023/09/18 03:58:31;;;;;;;9.00;7.80;;;;;;;;;;4915371;29;20032;-79
2023/09/18 04:00:56;;;;;;;7.97;6.45;;;;;;;;;;4917219;29;20308;-79
2023/09/18 04:03:21;;;;;;;7.00;6.28;;;;;;;;;;4917760;29;20043;-79
2023/09/18 04:05:47;;;;;;;8.17;6.43;;;;;;;;;;4913327;29;20067;-79
2023/09/18 04:08:13;;;;;;;8.85;7.45;;;;;;;;;;4912692;29;20295;-79
2023/09/18 04:10:38;;;;;;;8.55;7.43;;;;;;;;;;4928167;29;20394;-79
2023/09/18 04:13:03;;;;;;;12.50;8.70;;;;;;;;;;4916756;29;20051;-79
2023/09/18 04:15:30;;;;;;;11.07;9.02;;;;;;;;;;4925745;29;20056;-79
2023/09/18 04:17:56;;;;;;;9.55;8.55;;;;;;;;;;4929781;29;20035;-79
2023/09/18 04:20:21;;;;;;;8.40;6.95;;;;;;;;;;4917245;29;20481;-80
2023/09/18 04:22:49;;;;;;;7.82;6.70;;;;;;;;;;4912558;29;20409;-79
2023/09/18 04:25:15;;;;;;;7.82;6.75;;;;;;;;;;4901928;29;20034;-78
2023/09/18 04:27:41;;;;;;;10.35;9.07;;;;;;;;;;4913210;29;20024;-79
2023/09/18 04:30:08;;;;;;;12.88;10.73;;;;;;;;;;4930752;29;20048;-79
2023/09/18 04:32:34;;;;;;;10.23;8.40;;;;;;;;;;4920313;29;20067;-79
2023/09/18 04:34:59;;;;;;;12.93;9.57;;;;;;;;;;4910778;29;20057;-79
2023/09/18 04:37:24;;;;;;;11.05;9.07;;;;;;;;;;4911310;29;20396;-79
2023/09/18 04:39:51;;;;;;;11.48;10.15;;;;;;;;;;4913141;29;20040;-79
2023/09/18 04:42:16;;;;;;;9.35;8.30;;;;;;;;;;4917504;29;20024;-79
2023/09/18 04:44:42;;;;;;;10.95;9.85;;;;;;;;;;4930360;29;20449;-79
2023/09/18 04:47:07;;;;;;;10.23;9.05;;;;;;;;;;4911666;29;20033;-79
2023/09/18 04:49:33;;;;;;;10.75;9.18;;;;;;;;;;4912178;29;20039;-80
2023/09/18 04:51:58;;;;;;;9.23;7.63;;;;;;;;;;4910141;29;20103;-79
2023/09/18 04:54:23;;;;;;;7.47;6.68;;;;;;;;;;4900111;29;20040;-78
2023/09/18 04:56:49;;;;;;;8.27;5.97;;;;;;;;;;4915451;29;20032;-79
2023/09/18 04:59:14;;;;;;;7.10;5.97;;;;;;;;;;4911929;29;20051;-79
2023/09/18 05:01:41;;;;;;;6.88;5.63;;;;;;;;;;4923165;29;20748;-79
2023/09/18 05:04:06;;;;;;;12.38;10.00;;;;;;;;;;4910553;29;20056;-79
2023/09/18 05:06:32;;;;;;;9.77;8.15;;;;;;;;;;4914172;29;20080;-79
2023/09/18 05:08:57;;;;;;;10.45;8.48;;;;;;;;;;4911209;29;20060;-79
2023/09/18 05:11:23;;;;;;;8.48;6.78;;;;;;;;;;4923736;29;20035;-79
2023/09/18 05:13:49;;;;;;;8.90;5.95;;;;;;;;;;4913741;29;20488;-79
2023/09/18 05:16:14;;;;;;;11.82;6.30;;;;;;;;;;4912205;29;20035;-79
2023/09/18 05:18:40;;;;;;;9.48;7.07;;;;;;;;;;4910204;29;20028;-79
2023/09/18 05:21:06;;;;;;;7.43;6.60;;;;;;;;;;4910794;29;20052;-79
2023/09/18 05:23:31;;;;;;;8.00;6.38;;;;;;;;;;4914045;29;20027;-80
2023/09/18 05:25:56;;;;;;;9.95;7.10;;;;;;;;;;4915691;29;20043;-79
2023/09/18 05:28:22;;;;;;;10.53;7.80;;;;;;;;;;4916871;29;20032;-79
2023/09/18 05:30:47;;;;;;;9.00;8.07;;;;;;;;;;4914248;29;20272;-79
2023/09/18 05:33:13;;;;;;;11.77;9.50;;;;;;;;;;4926207;29;20695;-79
2023/09/18 05:35:42;;;;;;;14.40;10.40;;;;;;;;;;4910609;29;20047;-80
2023/09/18 05:38:08;;;;;;;11.63;10.05;;;;;;;;;;4915108;29;20033;-79
2023/09/18 05:40:33;;;;;;;10.30;8.95;;;;;;;;;;4915634;29;20035;-79
2023/09/18 05:42:59;;;;;;;11.37;10.10;;;;;;;;;;4912214;29;20028;-79
2023/09/18 05:45:24;;;;;;;11.75;9.85;;;;;;;;;;4908607;29;20309;-79
2023/09/18 05:47:50;;;;;;;10.63;9.43;;;;;;;;;;4907384;29;20038;-80
2023/09/18 05:50:16;;;;;;;8.88;7.88;;;;;;;;;;4920204;29;20404;-79
2023/09/18 05:52:42;;;;;;;9.20;8.05;;;;;;;;;;4913849;29;20032;-79
2023/09/18 05:55:08;;;;;;;10.40;9.30;;;;;;;;;;4915954;29;20056;-80
2023/09/18 05:57:33;;;;;;;9.73;8.77;;;;;;;;;;4914092;29;20031;-80
2023/09/18 05:59:59;;;;;;;10.77;9.68;;;;;;;;;;4911602;29;20060;-79
2023/09/18 06:02:27;;;;;;;11.17;9.90;;;;;;;;;;4913923;29;20527;-79
2023/09/18 06:04:57;;;;;;;10.48;8.35;;;;;;;;;;4914353;29;20284;-79
2023/09/18 06:07:22;;;;;;;8.57;6.82;;;;;;;;;;4915477;29;20052;-80
2023/09/18 06:09:48;;;;;;;8.52;6.55;;;;;;;;;;4912989;29;20504;-79
2023/09/18 06:12:14;;;;;;;11.05;9.73;;;;;;;;;;4914179;29;20032;-79
2023/09/18 06:14:39;;;;;;;9.23;8.20;;;;;;;;;;4908554;29;20024;-79
2023/09/18 06:17:05;;;;;;;12.77;11.33;;;;;;;;;;4912362;29;20032;-80
2023/09/18 06:19:31;;;;;;;16.05;11.20;;;;;;;;;;4916593;29;20356;-79
2023/09/18 06:21:56;;;;;;;12.32;10.95;;;;;;;;;;4913452;29;20098;-80
2023/09/18 06:24:21;;;;;;;10.40;8.67;;;;;;;;;;4915037;29;20024;-79
2023/09/18 06:26:46;;;;;;;10.98;9.88;;;;;;;;;;4909904;29;20287;-80
2023/09/18 06:29:12;;;;;;;13.95;10.95;;;;;;;;;;4913141;29;20032;-79
2023/09/18 06:31:37;;;;;;;12.27;9.35;;;;;;;;;;4915268;29;20040;-80
2023/09/18 06:34:02;;;;;;;7.90;6.23;;;;;;;;;;4915425;29;20036;-79
2023/09/18 06:36:27;;;;;;;8.88;7.63;;;;;;;;;;4914224;29;20284;-79
2023/09/18 06:38:53;;;;;;;9.00;8.03;;;;;;;;;;4913172;29;20024;-79
2023/09/18 06:41:18;;;;;;;9.52;8.15;;;;;;;;;;4911717;29;20291;-80
2023/09/18 06:43:44;;;;;;;10.77;9.10;;;;;;;;;;4910699;29;20114;-79
2023/09/18 06:46:09;;;;;;;12.15;10.57;;;;;;;;;;4913183;29;20032;-80
2023/09/18 06:48:34;;;;;;;11.27;9.47;;;;;;;;;;4915467;29;20042;-80
2023/09/18 06:51:00;;;;;;;11.48;10.27;;;;;;;;;;4913647;29;20332;-80
2023/09/18 06:53:26;;;;;;;11.40;10.20;;;;;;;;;;4915647;29;20044;-80
2023/09/18 06:55:51;;;;;;;11.02;9.10;;;;;;;;;;4909112;29;20040;-80
2023/09/18 06:58:16;;;;;;;11.07;9.07;;;;;;;;;;4912222;29;20064;-80
2023/09/18 07:00:42;;;;;;;12.50;8.50;;;;;;;;;;4912660;29;20280;-80
2023/09/18 07:03:09;;;;;;;9.43;8.27;;;;;;;;;;4928665;29;20327;-80
2023/09/18 07:05:34;;;;;;;6.18;5.53;;;;;;;;;;4915463;29;20039;-79
2023/09/18 07:08:00;;;;;;;8.07;6.50;;;;;;;;;;4926995;29;20024;-79
2023/09/18 07:10:25;;;;;;;11.57;7.20;;;;;;;;;;4922364;29;20364;-80
2023/09/18 07:12:50;;;;;;;9.25;6.47;;;;;;;;;;4907196;29;20111;-80
2023/09/18 07:15:17;;;;;;;14.17;9.30;;;;;;;;;;4913310;29;20047;-79
2023/09/18 07:17:42;;;;;;;10.10;8.20;;;;;;;;;;4916584;29;20655;-80
2023/09/18 07:20:13;;;;;;;9.40;8.40;;;;;;;;;;4911985;29;20036;-80
2023/09/18 07:22:39;;;;;;;8.00;7.20;;;;;;;;;;4913056;29;20036;-80
2023/09/18 07:25:04;;;;;;;8.57;6.65;;;;;;;;;;4916120;29;20043;-79
2023/09/18 07:27:29;;;;;;;10.45;8.70;;;;;;;;;;4916019;29;20072;-80
2023/09/18 07:29:55;;;;;;;12.80;7.67;;;;;;;;;;4919040;29;20036;-80
2023/09/18 07:32:20;;;;;;;8.10;6.50;;;;;;;;;;4911327;29;20059;-80
2023/09/18 07:34:47;;;;;;;9.60;7.00;;;;;;;;;;4898781;29;20029;-81
2023/09/18 07:37:12;;;;;;;10.77;7.25;;;;;;;;;;4919251;29;20040;-80
2023/09/18 07:39:39;;;;;;;8.18;6.90;;;;;;;;;;4910742;29;20047;-80
2023/09/18 07:42:04;;;;;;;11.50;8.55;;;;;;;;;;4918287;29;20039;-80
2023/09/18 07:44:29;;;;;;;8.68;7.28;;;;;;;;;;4918584;29;20028;-80
2023/09/18 07:46:55;;;;;;;11.10;7.33;;;;;;;;;;4918826;29;20028;-80
2023/09/18 07:49:20;;;;;;;9.67;7.53;;;;;;;;;;4915804;29;20523;-80
2023/09/18 07:51:45;;;;;;;7.67;5.37;;;;;;;;;;4926703;29;20036;-80
2023/09/18 07:54:13;;;;;;;10.93;6.33;;;;;;;;;;4910498;29;20516;-80
2023/09/18 07:56:38;;;;;;;7.90;6.03;;;;;;;;;;4915552;29;20288;-80
2023/09/18 07:59:05;;;;;;;8.43;6.00;;;;;;;;;;4918122;29;20045;-80
2023/09/18 08:01:31;;;;;;;9.65;6.18;;;;;;;;;;4916335;29;20028;-80
2023/09/18 08:03:59;;;;;;;7.28;5.00;;;;;;;;;;4912667;29;20028;-79
2023/09/18 08:06:26;;;;;;;8.68;5.57;;;;;;;;;;4913676;29;20028;-79
2023/09/18 08:08:51;;;;;;;9.60;7.25;;;;;;;;;;4913664;29;20028;-80
2023/09/18 08:11:16;;;;;;;11.05;5.93;;;;;;;;;;4916932;29;20032;-79
2023/09/18 08:13:42;;;;;;;9.20;7.25;;;;;;;;;;4916242;29;20481;-80
2023/09/18 08:16:07;;;;;;;8.88;6.63;;;;;;;;;;4897089;29;20212;-80
2023/09/18 08:18:32;;;;;;;9.90;7.20;;;;;;;;;;4914791;29;20040;-79
2023/09/18 08:20:58;;;;;;;12.53;6.63;;;;;;;;;;4912558;29;20025;-80
2023/09/18 08:23:26;;;;;;;9.98;5.95;;;;;;;;;;4911296;29;20284;-81
2023/09/18 08:25:55;;;;;;;7.30;5.72;;;;;;;;;;4917504;29;20099;-80
2023/09/18 08:28:20;;;;;;;11.50;7.05;;;;;;;;;;4914629;29;20039;-80
2023/09/18 08:30:47;;;;;;;8.53;5.73;;;;;;;;;;4931166;29;20757;-80
2023/09/18 08:33:12;;;;;;;9.13;7.18;;;;;;;;;;4911637;29;20033;-80
2023/09/18 08:35:39;;;;;;;7.35;5.78;;;;;;;;;;4910160;29;20103;-80
2023/09/18 08:38:04;;;;;;;8.82;5.80;;;;;;;;;;4917090;29;20151;-80
2023/09/18 08:40:30;;;;;;;6.50;5.82;;;;;;;;;;4917336;29;20040;-80
2023/09/18 08:42:55;;;;;;;10.52;8.68;;;;;;;;;;4915847;29;20036;-79
2023/09/18 08:45:50;;;;;;;7.93;7.05;;;;;;;;;;4913615;29;20032;-80
2023/09/18 08:48:15;;;;;;;6.65;4.97;;;;;;;;;;4914133;29;20040;-80
2023/09/18 08:50:41;;;;;;;8.43;7.10;;;;;;;;;;4908698;29;20059;-81
2023/09/18 08:53:07;;;;;;;7.72;6.10;;;;;;;;;;4916720;29;20052;-80
2023/09/18 08:55:33;;;;;;;8.25;6.75;;;;;;;;;;4913885;29;20067;-80
2023/09/18 08:57:59;;;;;;;8.20;5.78;;;;;;;;;;4916352;29;20063;-80
2023/09/18 09:00:25;;;;;;;5.57;4.20;;;;;;;;;;4913708;29;20024;-80
2023/09/18 09:02:52;;;;;;;8.25;6.40;;;;;;;;;;4911154;29;20525;-80
2023/09/18 09:05:17;;;;;;;8.00;4.63;;;;;;;;;;4918391;29;20036;-80
2023/09/18 09:07:42;;;;;;;8.85;5.43;;;;;;;;;;4918127;29;20047;-80
2023/09/18 09:10:08;;;;;;;7.72;5.93;;;;;;;;;;4913742;29;20040;-80
2023/09/18 09:12:50;;;;;;;6.95;5.80;;;;;;;;;;4914461;29;20040;-80
2023/09/18 09:15:15;;;;;;;5.85;4.60;;;;;;;;;;4915416;29;20047;-80
2023/09/18 09:17:41;;;;;;;7.32;5.25;;;;;;;;;;4908585;29;20032;-80
2023/09/18 09:20:13;;;;;;;8.35;6.65;;;;;;;;;;4914924;29;20401;-80
2023/09/18 09:22:40;;;;;;;7.30;4.50;;;;;;;;;;4920668;29;20031;-80
2023/09/18 09:25:21;;;;;;;7.25;5.55;;;;;;;;;;4912178;29;20024;-80
2023/09/18 09:27:47;;;;;;;7.78;4.40;;;;;;;;;;4914207;29;20028;-81
2023/09/18 09:30:18;;;;;;;9.18;4.70;;;;;;;;;;4896893;29;20049;-80
2023/09/18 09:32:43;;;;;;;;;;;;;;;;;;4911455;29;20039;-80
2023/09/18 09:35:08;;;;;;;9.20;7.03;;;;;;;;;;4912145;29;20006;-80
2023/09/18 09:37:34;;;;;;;7.05;5.60;;;;;;;;;;4916729;29;20497;-80
2023/09/18 09:40:08;;;;;;;7.78;4.07;;;;;;;;;;4913806;29;20028;-80
2023/09/18 09:42:37;;;;;;;6.38;4.35;;;;;;;;;;4912419;29;20032;-80
2023/09/18 09:45:04;;;;;;;10.60;6.22;;;;;;;;;;4908228;29;20060;-80
2023/09/18 09:47:33;;;;;;;16.25;8.77;;;;;;;;;;4914326;29;20408;-80
2023/09/18 09:49:58;;;;;;;10.23;6.90;;;;;;;;;;4914202;29;20038;-80
2023/09/18 09:52:23;;;;;;;13.37;5.20;;;;;;;;;;4907461;29;20111;-80
2023/09/18 09:54:48;;;;;;;6.93;3.67;;;;;;;;;;4910414;29;20505;-80
2023/09/18 09:57:13;;;;;;;8.27;5.50;;;;;;;;;;4917232;29;20076;-81
2023/09/18 09:59:39;;;;;;;9.77;5.00;;;;;;;;;;4911031;29;20067;-81
2023/09/18 10:02:08;;;;;;;6.25;4.40;;;;;;;;;;4915955;29;20035;-81
2023/09/18 10:04:34;;;;;;;7.03;3.88;;;;;;;;;;4915631;29;20063;-80
2023/09/18 10:07:07;;;;;;;5.03;2.85;;;;;;;;;;4917084;29;20024;-80
2023/09/18 10:09:35;;;;;;;4.50;3.35;;;;;;;;;;4904625;29;20176;-80
2023/09/18 10:12:04;;;;;;;8.80;6.07;;;;;;;;;;4909591;29;20111;-80
2023/09/18 10:14:31;;;;;;;7.47;5.18;;;;;;;;;;4909244;29;20064;-80
2023/09/18 10:16:59;;;;;;;5.43;4.30;;;;;;;;;;4915828;29;20119;-80
2023/09/18 10:19:25;;;;;;;5.70;4.57;;;;;;;;;;4915018;29;20036;-80
2023/09/18 10:22:12;;;;;;;8.63;5.60;;;;;;;;;;4910675;29;20031;-80
2023/09/18 10:24:40;;;;;;;5.95;3.53;;;;;;;;;;4909021;29;20021;-80
2023/09/18 10:27:08;;;;;;;8.63;6.55;;;;;;;;;;4914101;29;20115;-80
2023/09/18 10:29:34;;;;;;;6.22;4.47;;;;;;;;;;4916250;29;20088;-80
2023/09/18 10:32:01;;;;;;;5.53;3.40;;;;;;;;;;4912793;29;20071;-80
2023/09/18 10:34:27;;;;;;;6.82;5.03;;;;;;;;;;4923778;29;20039;-80
2023/09/18 10:36:54;;;;;;;6.72;4.47;;;;;;;;;;4912055;29;20539;-80
2023/09/18 10:39:23;;;;;;;5.40;3.78;;;;;;;;;;4911003;29;20087;-80
2023/09/18 10:41:50;;;;;;;4.90;3.00;;;;;;;;;;4913945;29;20040;-79
2023/09/18 10:44:19;;;;;;;4.65;3.22;;;;;;;;;;4922060;29;20046;-80
2023/09/18 10:46:47;;;;;;;7.22;4.13;;;;;;;;;;4912497;29;20506;-80
2023/09/18 10:49:14;;;;;;;6.50;5.80;;;;;;;;;;4914700;29;20029;-80
2023/09/18 10:51:42;;;;;;;6.50;3.92;;;;;;;;;;4910850;29;20032;-80
2023/09/18 10:54:10;;;;;;;9.13;4.70;;;;;;;;;;4908180;29;20127;-80
2023/09/18 10:56:36;;;;;;;5.32;3.65;;;;;;;;;;4916471;29;20032;-80
2023/09/18 10:59:03;;;;;;;4.05;3.35;;;;;;;;;;4916386;29;20146;-80
2023/09/18 11:01:29;;;;;;;5.55;4.47;;;;;;;;;;4909733;29;20503;-80
2023/09/18 11:04:02;;;;;;;8.75;6.22;;;;;;;;;;4911785;29;20032;-80
2023/09/18 11:06:27;;;;;;;6.90;4.40;;;;;;;;;;4910127;29;20087;-80
2023/09/18 11:09:01;;;;;;;6.30;4.50;;;;;;;;;;4906619;29;20048;-80
2023/09/18 11:11:29;;;;;;;4.47;3.38;;;;;;;;;;4912255;29;20040;-80
2023/09/18 11:13:55;;;;;;;5.07;2.80;;;;;;;;;;4912449;29;20047;-80
2023/09/18 11:16:26;;;;;;;6.68;3.00;;;;;;;;;;4913353;29;20028;-80
2023/09/18 11:18:57;;;;;;;32.35;6.43;;;;;;;;;;4911894;29;20560;-80
2023/09/18 11:21:23;;;;;;;11.57;5.05;;;;;;;;;;4906607;29;20158;-80
2023/09/18 11:23:57;;;;;;;4.90;3.47;;;;;;;;;;4911979;29;20028;-80
2023/09/18 11:26:22;;;;;;;9.93;3.65;;;;;;;;;;4912352;29;20032;-80
2023/09/18 11:28:47;;;;;;;9.40;3.30;;;;;;;;;;4912125;29;20035;-80
2023/09/18 11:31:14;;;;;;;13.23;5.20;;;;;;;;;;4929922;29;20081;-80
2023/09/18 11:33:40;;;;;;;13.48;4.00;;;;;;;;;;4924524;29;20046;-80
2023/09/18 11:36:07;;;;;;;6.53;3.83;;;;;;;;;;4911772;29;20043;-80
2023/09/18 11:38:36;;;;;;;7.78;3.60;;;;;;;;;;4916685;29;20089;-80
2023/09/18 11:41:19;;;;;;;4.13;2.58;;;;;;;;;;4914828;29;20032;-80
2023/09/18 11:43:44;;;;;;;4.10;2.97;;;;;;;;;;4915069;29;20025;-80
2023/09/18 11:46:10;;;;;;;7.70;2.75;;;;;;;;;;4909431;29;20036;-80
2023/09/18 11:48:36;;;;;;;7.55;2.65;;;;;;;;;;4910268;29;20040;-80
2023/09/18 11:51:04;;;;;;;3.83;2.30;;;;;;;;;;4910077;29;20060;-80
2023/09/18 11:53:33;;;;;;;5.10;2.50;;;;;;;;;;4914640;29;20119;-80
2023/09/18 11:55:59;;;;;;;7.72;3.42;;;;;;;;;;4914236;29;20054;-81
2023/09/18 11:58:24;;;;;;;5.07;4.03;;;;;;;;;;4915444;29;20607;-80
2023/09/18 12:00:50;;;;;;;5.10;3.30;;;;;;;;;;4910138;29;20481;-81
2023/09/18 12:03:24;;;;;;;9.25;3.05;;;;;;;;;;4909990;29;20834;-80
2023/09/18 12:05:50;;;;;;;5.95;4.43;;;;;;;;;;4912831;29;20397;-80
2023/09/18 12:08:16;;;;;;;6.55;4.25;;;;;;;;;;4929664;29;20041;-80
2023/09/18 12:10:41;;;;;;;9.87;5.87;;;;;;;;;;4919005;29;20028;-80
2023/09/18 12:13:08;;;;;;;8.10;4.40;;;;;;;;;;4914845;29;20351;-80
2023/09/18 12:15:33;;;;;;;12.02;4.10;;;;;;;;;;4916187;29;20024;-81
2023/09/18 12:18:05;;;;;;;13.13;4.18;;;;;;;;;;4908649;29;20079;-80
2023/09/18 12:20:31;;;;;;;12.63;3.65;;;;;;;;;;4918933;29;20028;-80
2023/09/18 12:22:56;;;;;;;26.02;5.05;;;;;;;;;;4916919;29;20055;-80
2023/09/18 12:25:23;;;;;;;11.93;3.33;;;;;;;;;;4911874;29;20043;-81
2023/09/18 12:27:52;;;;;;;7.00;2.28;;;;;;;;;;4914069;29;20043;-80
2023/09/18 12:30:20;;;;;;;6.20;2.10;;;;;;;;;;4912139;29;20453;-79
2023/09/18 12:32:47;;;;;;;5.10;2.22;;;;;;;;;;4913387;29;20032;-80
2023/09/18 12:35:13;;;;;;;6.55;2.60;;;;;;;;;;4919027;29;20051;-80
2023/09/18 12:37:42;;;;;;;6.00;2.22;;;;;;;;;;4919042;29;20496;-80
2023/09/18 12:40:19;;;;;;;7.22;1.90;;;;;;;;;;4929137;29;20028;-80
2023/09/18 12:42:45;;;;;;;8.95;2.38;;;;;;;;;;4927428;29;20052;-80
2023/09/18 12:45:11;;;;;;;7.35;2.25;;;;;;;;;;4914280;29;20032;-80
2023/09/18 12:47:39;;;;;;;5.22;1.52;;;;;;;;;;4915449;29;20066;-80
2023/09/18 12:50:06;;;;;;;7.07;1.95;;;;;;;;;;4932029;29;20677;-80
2023/09/18 12:52:32;;;;;;;7.07;1.92;;;;;;;;;;4916217;29;20036;-80
2023/09/18 12:54:58;;;;;;;10.43;2.22;;;;;;;;;;4911648;29;20036;-80
2023/09/18 12:57:24;;;;;;;7.68;1.58;;;;;;;;;;4917955;29;20577;-80
2023/09/18 12:59:51;;;;;;;5.50;1.90;;;;;;;;;;4913377;29;20032;-80
2023/09/18 13:02:19;;;;;;;8.77;2.05;;;;;;;;;;4918063;29;20521;-80
2023/09/18 13:04:51;;;;;;;7.68;2.22;;;;;;;;;;4912902;29;20029;-80
2023/09/18 13:07:17;;;;;;;7.07;2.17;;;;;;;;;;4915956;29;20036;-80
2023/09/18 13:09:42;;;;;;;3.95;1.52;;;;;;;;;;4914613;29;20028;-80
2023/09/18 13:12:08;;;;;;;6.45;2.00;;;;;;;;;;4908897;29;20466;-80
2023/09/18 13:14:52;;;;;;;10.80;3.45;;;;;;;;;;4909802;29;20047;-80
2023/09/18 13:17:18;;;;;;;4.57;1.75;;;;;;;;;;4917005;29;20123;-80
2023/09/18 13:19:43;;;;;;;6.25;2.38;;;;;;;;;;4921138;29;20107;-80
2023/09/18 13:22:08;;;;;;;6.73;1.87;;;;;;;;;;4913347;29;20086;-80
2023/09/18 13:24:34;;;;;;;8.50;2.20;;;;;;;;;;4913586;29;20350;-80
2023/09/18 13:27:02;;;;;;;8.90;2.75;;;;;;;;;;4914087;29;20044;-80
2023/09/18 13:29:27;;;;;;;9.10;2.42;;;;;;;;;;4922106;29;20036;-80
2023/09/18 13:31:53;;;;;;;7.97;2.00;;;;;;;;;;4915822;29;20031;-80
2023/09/18 13:34:18;;;;;;;5.10;2.10;;;;;;;;;;4915066;29;20044;-80
2023/09/18 13:36:45;;;;;;;8.07;2.70;;;;;;;;;;4913340;29;20043;-80
2023/09/18 13:39:13;;;;;;;8.48;1.80;;;;;;;;;;4911743;29;20088;-80
2023/09/18 13:41:41;;;;;;;11.23;2.40;;;;;;;;;;4909484;29;20032;-80
2023/09/18 13:44:06;;;;;;;11.07;2.30;;;;;;;;;;4913420;29;20846;-80
2023/09/18 13:46:31;;;;;;;9.93;2.73;;;;;;;;;;4916058;29;20032;-80
2023/09/18 13:48:59;;;;;;;10.43;2.67;;;;;;;;;;4915171;29;20280;-82
2023/09/18 13:51:24;;;;;;;16.05;2.38;;;;;;;;;;4909881;29;20573;-79
2023/09/18 13:53:50;;;;;;;5.63;1.80;;;;;;;;;;4913656;29;20028;-79
2023/09/18 13:56:15;;;;;;;7.65;2.40;;;;;;;;;;4893632;29;20288;-84
2023/09/18 13:58:41;;;;;;;9.97;2.50;;;;;;;;;;4917412;29;20032;-81
2023/09/18 14:01:07;;;;;;;7.68;1.85;;;;;;;;;;4912595;29;20268;-81
2023/09/18 14:03:32;;;;;;;6.60;1.83;;;;;;;;;;4924109;29;20294;-81
2023/09/18 14:05:57;;;;;;;13.07;2.47;;;;;;;;;;4910790;29;20542;-79
2023/09/18 14:08:22;;;;;;;11.80;2.07;;;;;;;;;;4914089;29;20031;-79
2023/09/18 14:10:48;;;;;;;7.63;3.30;;;;;;;;;;4924863;29;20146;-79
2023/09/18 14:13:13;;;;;;;6.37;1.70;;;;;;;;;;4914641;29;20493;-79
2023/09/18 14:15:39;;;;;;;6.13;2.27;;;;;;;;;;4914518;29;20022;-79
2023/09/18 14:18:04;;;;;;;9.02;1.88;;;;;;;;;;4911250;29;20375;-79
2023/09/18 14:20:29;;;;;;;6.03;2.00;;;;;;;;;;4914419;29;20032;-79
2023/09/18 14:22:54;;;;;;;7.50;2.00;;;;;;;;;;4908176;29;20295;-79
2023/09/18 14:25:22;;;;;;;9.95;2.53;;;;;;;;;;4912418;29;20070;-79
2023/09/18 14:27:47;;;;;;;11.98;2.22;;;;;;;;;;4916705;29;20036;-79
2023/09/18 14:30:13;;;;;;;7.78;2.08;;;;;;;;;;4914025;29;20095;-79
2023/09/18 14:32:38;;;;;;;6.10;1.75;;;;;;;;;;4907333;29;20028;-78
2023/09/18 14:35:05;;;;;;;6.88;1.70;;;;;;;;;;4908831;29;20044;-78